createdAt,value
2017-05-22T00:00:12.588Z,17.33
2017-05-22T00:01:26.196Z,17.34
2017-05-22T00:02:40.417Z,17.34
2017-05-22T00:03:55.019Z,17.34
2017-05-22T00:05:08.606Z,17.33
2017-05-22T00:06:22.502Z,17.32
2017-05-22T00:07:36.383Z,17.3
2017-05-22T00:08:50.711Z,17.24
2017-05-22T00:10:05.023Z,17.18
2017-05-22T00:11:18.895Z,17.11
2017-05-22T00:12:32.487Z,17.05
2017-05-22T00:13:46.444Z,16.99
2017-05-22T00:15:00.133Z,16.95
2017-05-22T00:16:14.613Z,16.94
2017-05-22T00:17:28.517Z,16.92
2017-05-22T00:18:42.112Z,16.91
2017-05-22T00:19:56.029Z,16.92
2017-05-22T00:21:10.587Z,16.91
2017-05-22T00:22:24.447Z,16.91
2017-05-22T00:23:38.504Z,16.91
2017-05-22T00:24:52.144Z,16.91
2017-05-22T00:26:06.087Z,16.9
2017-05-22T00:27:20.042Z,16.89
2017-05-22T00:28:33.868Z,16.89
2017-05-22T00:29:47.460Z,16.89
2017-05-22T00:31:01.442Z,16.86
2017-05-22T00:32:15.308Z,16.82
2017-05-22T00:33:29.210Z,16.82
2017-05-22T00:34:43.434Z,16.81
2017-05-22T00:35:56.983Z,16.8
2017-05-22T00:37:25.369Z,16.78
2017-05-22T00:38:38.930Z,16.73
2017-05-22T00:39:52.515Z,16.73
2017-05-22T00:41:06.367Z,16.7
2017-05-22T00:42:20.056Z,16.68
2017-05-22T00:43:33.975Z,16.65
2017-05-22T00:44:47.565Z,16.64
2017-05-22T00:46:01.151Z,16.63
2017-05-22T00:47:15.071Z,16.65
2017-05-22T00:48:28.699Z,16.67
2017-05-22T00:49:42.250Z,16.68
2017-05-22T00:50:55.871Z,16.68
2017-05-22T00:52:09.418Z,16.7
2017-05-22T00:53:24.010Z,16.69
2017-05-22T00:54:37.926Z,16.69
2017-05-22T00:55:51.874Z,16.66
2017-05-22T00:57:05.683Z,16.6
2017-05-22T00:58:19.361Z,16.55
2017-05-22T00:59:33.198Z,16.5
2017-05-22T01:00:46.802Z,16.47
2017-05-22T01:02:01.012Z,16.45
2017-05-22T01:03:14.873Z,16.44
2017-05-22T01:04:28.891Z,16.44
2017-05-22T01:05:42.878Z,16.42
2017-05-22T01:06:56.609Z,16.42
2017-05-22T01:08:10.182Z,16.41
2017-05-22T01:09:23.894Z,16.39
2017-05-22T01:10:37.809Z,16.38
2017-05-22T01:11:51.993Z,16.38
2017-05-22T01:13:05.688Z,16.39
2017-05-22T01:14:19.265Z,16.42
2017-05-22T01:15:32.807Z,16.44
2017-05-22T01:16:46.431Z,16.48
2017-05-22T01:18:00.665Z,16.51
2017-05-22T01:19:14.304Z,16.53
2017-05-22T01:20:27.909Z,16.55
2017-05-22T01:21:41.911Z,16.57
2017-05-22T01:22:55.445Z,16.6
2017-05-22T01:24:09.428Z,16.62
2017-05-22T01:25:22.988Z,16.66
2017-05-22T01:26:36.573Z,16.7
2017-05-22T01:27:51.278Z,16.72
2017-05-22T01:29:04.870Z,16.75
2017-05-22T01:30:18.801Z,16.79
2017-05-22T01:31:32.709Z,16.81
2017-05-22T01:32:46.345Z,16.83
2017-05-22T01:34:00.266Z,16.85
2017-05-22T01:35:14.138Z,16.85
2017-05-22T01:36:28.358Z,16.86
2017-05-22T01:37:41.906Z,16.84
2017-05-22T01:38:55.487Z,16.84
2017-05-22T01:40:09.502Z,16.82
2017-05-22T01:41:23.413Z,16.82
2017-05-22T01:42:37.378Z,16.8
2017-05-22T01:43:50.961Z,16.78
2017-05-22T01:45:04.887Z,16.75
2017-05-22T01:46:18.872Z,16.74
2017-05-22T01:47:32.533Z,16.7
2017-05-22T01:48:46.423Z,16.65
2017-05-22T01:50:00.182Z,16.62
2017-05-22T01:51:14.027Z,16.59
2017-05-22T01:52:27.623Z,16.56
2017-05-22T01:53:41.497Z,16.54
2017-05-22T01:54:55.405Z,16.52
2017-05-22T01:56:09.459Z,16.49
2017-05-22T01:57:23.516Z,16.45
2017-05-22T01:58:37.104Z,16.4
2017-05-22T01:59:50.683Z,16.37
2017-05-22T02:01:04.906Z,16.34
2017-05-22T02:02:18.612Z,16.33
2017-05-22T02:03:32.534Z,16.29
2017-05-22T02:04:46.777Z,16.28
2017-05-22T02:06:00.377Z,16.26
2017-05-22T02:07:14.616Z,16.23
2017-05-22T02:08:28.792Z,16.23
2017-05-22T02:09:42.317Z,16.21
2017-05-22T02:10:55.977Z,16.18
2017-05-22T02:12:09.918Z,16.14
2017-05-22T02:13:23.838Z,16.12
2017-05-22T02:14:37.498Z,16.1
2017-05-22T02:15:51.051Z,16.09
2017-05-22T02:17:04.613Z,16.08
2017-05-22T02:18:18.253Z,16.12
2017-05-22T02:19:33.120Z,16.1
2017-05-22T02:20:46.689Z,16.09
2017-05-22T02:22:00.669Z,16.07
2017-05-22T02:23:21.288Z,16.05
2017-05-22T02:24:35.249Z,16.04
2017-05-22T02:25:49.457Z,16.06
2017-05-22T02:27:03.097Z,16.07
2017-05-22T02:28:16.724Z,16.07
2017-05-22T02:29:30.611Z,16.08
2017-05-22T02:30:44.555Z,16.07
2017-05-22T02:31:58.359Z,16.07
2017-05-22T02:33:12.305Z,16.07
2017-05-22T02:34:26.671Z,16.08
2017-05-22T02:35:40.884Z,16.08
2017-05-22T02:36:54.757Z,16.08
2017-05-22T02:38:08.626Z,16.09
2017-05-22T02:39:22.279Z,16.1
2017-05-22T02:40:36.015Z,16.11
2017-05-22T02:41:49.652Z,16.11
2017-05-22T02:43:03.278Z,16.1
2017-05-22T02:44:17.167Z,16.1
2017-05-22T02:45:30.741Z,16.11
2017-05-22T02:46:44.434Z,16.12
2017-05-22T02:47:58.342Z,16.14
2017-05-22T02:49:12.262Z,16.14
2017-05-22T02:50:26.555Z,16.12
2017-05-22T02:51:40.431Z,16.12
2017-05-22T02:52:54.687Z,16.11
2017-05-22T02:54:08.614Z,16.1
2017-05-22T02:55:22.514Z,16.11
2017-05-22T02:56:36.597Z,16.09
2017-05-22T02:57:50.579Z,16.07
2017-05-22T02:59:04.834Z,16.07
2017-05-22T03:00:18.461Z,16.06
2017-05-22T03:01:32.109Z,16.05
2017-05-22T03:02:46.114Z,16.06
2017-05-22T03:04:00.120Z,16.07
2017-05-22T03:05:13.782Z,16.05
2017-05-22T03:06:27.559Z,16.04
2017-05-22T03:07:41.346Z,16.02
2017-05-22T03:08:55.237Z,16.03
2017-05-22T03:10:10.206Z,16.02
2017-05-22T03:11:24.158Z,16.05
2017-05-22T03:12:38.088Z,16.05
2017-05-22T03:13:52.433Z,16.04
2017-05-22T03:15:06.409Z,16.02
2017-05-22T03:16:20.288Z,16.02
2017-05-22T03:17:33.849Z,16.01
2017-05-22T03:18:47.582Z,16
2017-05-22T03:20:01.517Z,16.01
2017-05-22T03:21:16.097Z,16.02
2017-05-22T03:22:29.687Z,16.02
2017-05-22T03:23:43.586Z,16.03
2017-05-22T03:24:57.636Z,16.05
2017-05-22T03:26:11.583Z,16.06
2017-05-22T03:27:25.842Z,16.1
2017-05-22T03:28:39.430Z,16.11
2017-05-22T03:29:53.159Z,16.12
2017-05-22T03:31:06.832Z,16.14
2017-05-22T03:32:20.511Z,16.13
2017-05-22T03:33:34.480Z,16.11
2017-05-22T03:34:48.041Z,16.08
2017-05-22T03:36:01.637Z,16.06
2017-05-22T03:37:15.255Z,16.05
2017-05-22T03:38:28.788Z,16.05
2017-05-22T03:39:42.885Z,16.07
2017-05-22T03:40:56.539Z,16.08
2017-05-22T03:42:10.135Z,16.09
2017-05-22T03:43:23.741Z,16.1
2017-05-22T03:44:37.718Z,16.14
2017-05-22T03:45:52.399Z,16.17
2017-05-22T03:47:06.027Z,16.19
2017-05-22T03:48:19.906Z,16.21
2017-05-22T03:49:33.803Z,16.2
2017-05-22T03:50:47.388Z,16.22
2017-05-22T03:52:01.302Z,16.22
2017-05-22T03:53:15.561Z,16.25
2017-05-22T03:54:29.150Z,16.28
2017-05-22T03:55:43.038Z,16.31
2017-05-22T03:56:56.688Z,16.33
2017-05-22T03:58:11.281Z,16.35
2017-05-22T03:59:25.207Z,16.36
2017-05-22T04:00:38.799Z,16.37
2017-05-22T04:01:52.521Z,16.38
2017-05-22T04:03:06.108Z,16.39
2017-05-22T04:04:20.019Z,16.41
2017-05-22T04:05:33.977Z,16.42
2017-05-22T04:06:48.313Z,16.45
2017-05-22T04:08:02.009Z,16.47
2017-05-22T04:09:16.413Z,16.5
2017-05-22T04:10:30.631Z,16.52
2017-05-22T04:11:44.305Z,16.56
2017-05-22T04:12:58.502Z,16.57
2017-05-22T04:14:12.085Z,16.55
2017-05-22T04:15:25.715Z,16.52
2017-05-22T04:16:39.610Z,16.51
2017-05-22T04:17:53.324Z,16.46
2017-05-22T04:19:07.507Z,16.42
2017-05-22T04:20:21.467Z,16.4
2017-05-22T04:21:35.579Z,16.39
2017-05-22T04:22:49.718Z,16.37
2017-05-22T04:24:03.764Z,16.35
2017-05-22T04:25:17.965Z,16.35
2017-05-22T04:26:34.911Z,16.34
2017-05-22T04:27:50.291Z,16.37
2017-05-22T04:29:05.498Z,16.39
2017-05-22T04:30:19.126Z,16.39
2017-05-22T04:31:33.197Z,16.41
2017-05-22T04:32:47.556Z,16.44
2017-05-22T04:34:01.687Z,16.46
2017-05-22T04:35:16.970Z,16.49
2017-05-22T04:36:30.723Z,16.54
2017-05-22T04:37:45.031Z,16.59
2017-05-22T04:38:58.760Z,16.64
2017-05-22T04:40:13.010Z,16.72
2017-05-22T04:41:26.636Z,16.78
2017-05-22T04:42:40.224Z,16.84
2017-05-22T04:43:53.869Z,16.87
2017-05-22T04:45:07.830Z,16.9
2017-05-22T04:46:21.467Z,16.9
2017-05-22T04:47:35.383Z,16.88
2017-05-22T04:48:48.985Z,16.91
2017-05-22T04:50:02.596Z,16.99
2017-05-22T04:51:16.232Z,17.07
2017-05-22T04:52:29.890Z,17.14
2017-05-22T04:53:43.791Z,17.19
2017-05-22T04:54:57.834Z,17.28
2017-05-22T04:56:12.103Z,17.35
2017-05-22T04:57:26.052Z,17.42
2017-05-22T04:58:40.002Z,17.47
2017-05-22T04:59:54.088Z,17.55
2017-05-22T05:01:09.120Z,17.62
2017-05-22T05:02:23.127Z,17.68
2017-05-22T05:03:37.388Z,17.77
2017-05-22T05:04:51.506Z,17.87
2017-05-22T05:06:05.549Z,18.19
2017-05-22T05:07:19.630Z,19.46
2017-05-22T05:08:33.285Z,21.21
2017-05-22T05:09:46.844Z,22.65
2017-05-22T05:11:00.525Z,24
2017-05-22T05:12:14.440Z,25.15
2017-05-22T05:13:28.055Z,26.27
2017-05-22T05:14:41.674Z,27.33
2017-05-22T05:15:55.424Z,28.14
2017-05-22T05:17:09.441Z,28.91
2017-05-22T05:18:23.361Z,29.66
2017-05-22T05:19:37.309Z,30.32
2017-05-22T05:20:51.295Z,30.75
2017-05-22T05:22:04.905Z,31.07
2017-05-22T05:23:19.254Z,31.36
2017-05-22T05:24:33.834Z,29.81
2017-05-22T05:25:47.472Z,28.23
2017-05-22T05:27:01.262Z,27.12
2017-05-22T05:28:14.868Z,26.31
2017-05-22T05:29:28.906Z,25.66
2017-05-22T05:30:42.837Z,25.17
2017-05-22T05:31:57.191Z,24.74
2017-05-22T05:33:10.792Z,24.38
2017-05-22T05:34:24.404Z,24.05
2017-05-22T05:35:38.055Z,23.8
2017-05-22T05:36:52.084Z,23.6
2017-05-22T05:38:05.794Z,23.43
2017-05-22T05:39:20.477Z,23.29
2017-05-22T05:40:34.428Z,23.18
2017-05-22T05:41:48.057Z,23.11
2017-05-22T05:43:02.435Z,23.07
2017-05-22T05:44:16.441Z,23.04
2017-05-22T05:45:30.470Z,22.95
2017-05-22T05:46:44.592Z,22.87
2017-05-22T05:47:58.563Z,22.79
2017-05-22T05:49:12.592Z,22.75
2017-05-22T05:50:26.626Z,22.69
2017-05-22T05:51:40.742Z,22.64
2017-05-22T05:52:54.359Z,22.63
2017-05-22T05:54:07.976Z,22.67
2017-05-22T05:55:21.926Z,22.71
2017-05-22T05:56:35.531Z,22.76
2017-05-22T05:57:49.631Z,22.78
2017-05-22T05:59:03.699Z,22.78
2017-05-22T06:00:17.398Z,22.79
2017-05-22T06:01:31.428Z,22.85
2017-05-22T06:02:45.838Z,22.95
2017-05-22T06:03:59.566Z,23.03
2017-05-22T06:05:13.294Z,23.07
2017-05-22T06:06:27.923Z,23.07
2017-05-22T06:07:41.902Z,23.1
2017-05-22T06:08:55.921Z,23.13
2017-05-22T06:10:09.598Z,23.14
2017-05-22T06:11:24.031Z,23.15
2017-05-22T06:12:37.744Z,23.17
2017-05-22T06:13:51.810Z,23.16
2017-05-22T06:15:05.567Z,23.06
2017-05-22T06:16:19.271Z,22.95
2017-05-22T06:17:32.915Z,22.89
2017-05-22T06:18:46.971Z,22.85
2017-05-22T06:20:01.090Z,22.81
2017-05-22T06:21:14.832Z,22.76
2017-05-22T06:22:28.456Z,22.63
2017-05-22T06:23:42.177Z,22.4
2017-05-22T06:24:56.490Z,22.23
2017-05-22T06:26:10.984Z,22.12
2017-05-22T06:27:24.954Z,22.05
2017-05-22T06:28:38.759Z,22.07
2017-05-22T06:29:52.857Z,22.12
2017-05-22T06:31:06.980Z,22.2
2017-05-22T06:32:21.004Z,22.3
2017-05-22T06:33:34.823Z,22.41
2017-05-22T06:34:48.921Z,22.55
2017-05-22T06:36:03.009Z,22.67
2017-05-22T06:37:17.087Z,22.76
2017-05-22T06:38:31.160Z,22.85
2017-05-22T06:39:45.102Z,22.87
2017-05-22T06:40:59.143Z,22.92
2017-05-22T06:42:13.071Z,22.99
2017-05-22T06:43:27.153Z,23.09
2017-05-22T06:44:41.484Z,23.16
2017-05-22T06:45:55.232Z,23.19
2017-05-22T06:47:09.839Z,23.21
2017-05-22T06:48:24.161Z,23.24
2017-05-22T06:49:37.805Z,23.29
2017-05-22T06:50:52.561Z,23.35
2017-05-22T06:52:06.172Z,23.4
2017-05-22T06:53:20.989Z,23.47
2017-05-22T06:54:35.045Z,23.55
2017-05-22T06:55:49.794Z,23.63
2017-05-22T06:57:04.358Z,23.73
2017-05-22T06:58:18.091Z,23.8
2017-05-22T06:59:32.164Z,23.84
2017-05-22T07:00:46.205Z,23.84
2017-05-22T07:01:59.847Z,23.8
2017-05-22T07:03:13.857Z,23.73
2017-05-22T07:04:27.949Z,23.59
2017-05-22T07:05:41.587Z,23.43
2017-05-22T07:06:55.412Z,23.29
2017-05-22T07:08:09.115Z,23.18
2017-05-22T07:09:24.185Z,23.15
2017-05-22T07:10:38.305Z,23.1
2017-05-22T07:11:52.124Z,23.09
2017-05-22T07:13:06.149Z,23.1
2017-05-22T07:14:19.754Z,23.12
2017-05-22T07:15:34.542Z,23.17
2017-05-22T07:16:48.669Z,23.25
2017-05-22T07:18:02.585Z,23.34
2017-05-22T07:19:16.236Z,23.43
2017-05-22T07:20:30.243Z,23.49
2017-05-22T07:21:44.423Z,23.58
2017-05-22T07:22:58.232Z,23.6
2017-05-22T07:24:12.648Z,23.52
2017-05-22T07:25:26.663Z,23.46
2017-05-22T07:26:40.449Z,23.44
2017-05-22T07:27:54.482Z,23.48
2017-05-22T07:29:08.143Z,23.55
2017-05-22T07:30:22.168Z,23.68
2017-05-22T07:31:35.774Z,23.76
2017-05-22T07:32:49.637Z,23.84
2017-05-22T07:34:03.958Z,23.86
2017-05-22T07:35:17.974Z,23.84
2017-05-22T07:36:31.654Z,23.78
2017-05-22T07:37:45.446Z,23.71
2017-05-22T07:38:59.410Z,23.64
2017-05-22T07:40:13.761Z,23.6
2017-05-22T07:41:27.428Z,23.57
2017-05-22T07:42:41.165Z,23.54
2017-05-22T07:43:55.554Z,23.49
2017-05-22T07:45:09.230Z,23.42
2017-05-22T07:46:23.527Z,23.26
2017-05-22T07:47:37.994Z,23.07
2017-05-22T07:48:52.163Z,23
2017-05-22T07:50:05.791Z,22.97
2017-05-22T07:51:20.081Z,22.96
2017-05-22T07:52:34.263Z,22.96
2017-05-22T07:53:48.609Z,22.95
2017-05-22T07:55:02.829Z,22.95
2017-05-22T07:56:17.614Z,22.97
2017-05-22T07:57:31.232Z,22.97
2017-05-22T07:58:45.305Z,22.99
2017-05-22T07:59:58.941Z,22.92
2017-05-22T08:01:12.655Z,22.88
2017-05-22T08:02:26.663Z,22.84
2017-05-22T08:03:41.031Z,22.86
2017-05-22T08:04:56.597Z,22.88
2017-05-22T08:06:12.074Z,22.95
2017-05-22T08:07:25.831Z,23.01
2017-05-22T08:08:40.443Z,23.08
2017-05-22T08:09:54.799Z,23.16
2017-05-22T08:11:09.081Z,23.28
2017-05-22T08:12:23.398Z,23.38
2017-05-22T08:13:37.608Z,23.38
2017-05-22T08:14:52.191Z,23.39
2017-05-22T08:16:06.367Z,23.42
2017-05-22T08:17:20.474Z,23.4
2017-05-22T08:18:37.396Z,23.4
2017-05-22T08:19:51.973Z,23.37
2017-05-22T08:21:06.025Z,23.29
2017-05-22T08:22:20.168Z,23.2
2017-05-22T08:23:35.201Z,23.17
2017-05-22T08:24:49.055Z,23.15
2017-05-22T08:26:02.906Z,23.13
2017-05-22T08:27:16.933Z,23.1
2017-05-22T08:28:30.568Z,23.12
2017-05-22T08:29:44.683Z,23.17
2017-05-22T08:30:58.921Z,23.2
2017-05-22T08:32:12.935Z,23.26
2017-05-22T08:33:26.982Z,23.29
2017-05-22T08:34:41.264Z,23.35
2017-05-22T08:35:55.993Z,23.39
2017-05-22T08:37:10.571Z,23.42
2017-05-22T08:38:24.881Z,23.43
2017-05-22T08:39:38.894Z,23.44
2017-05-22T08:40:52.542Z,23.45
2017-05-22T08:42:08.002Z,23.45
2017-05-22T08:43:22.185Z,23.46
2017-05-22T08:44:36.326Z,23.46
2017-05-22T08:45:50.748Z,23.43
2017-05-22T08:47:10.200Z,23.39
2017-05-22T08:48:25.872Z,23.35
2017-05-22T08:49:44.856Z,23.31
2017-05-22T08:51:03.565Z,23.26
2017-05-22T08:52:20.630Z,23.23
2017-05-22T08:53:38.496Z,23.15
2017-05-22T08:54:54.096Z,23.04
2017-05-22T08:56:13.583Z,22.91
2017-05-22T08:57:31.131Z,22.83
2017-05-22T08:58:50.331Z,22.78
2017-05-22T09:00:07.804Z,22.72
2017-05-22T09:01:27.200Z,22.68
2017-05-22T09:02:43.870Z,22.65
2017-05-22T09:03:58.295Z,22.66
2017-05-22T09:05:15.868Z,22.68
2017-05-22T09:06:35.816Z,22.73
2017-05-22T09:07:50.445Z,22.79
2017-05-22T09:09:05.238Z,22.84
2017-05-22T09:10:21.028Z,22.88
2017-05-22T09:11:34.806Z,22.93
2017-05-22T09:12:48.902Z,22.99
2017-05-22T09:14:03.756Z,22.97
2017-05-22T09:15:18.102Z,22.96
2017-05-22T09:16:31.831Z,22.97
2017-05-22T09:17:45.607Z,22.98
2017-05-22T09:21:22.232Z,23.14
2017-05-22T09:22:36.230Z,23.2
2017-05-22T09:23:50.220Z,23.19
2017-05-22T09:25:04.156Z,23.19
2017-05-22T09:26:17.852Z,23.21
2017-05-22T09:27:31.560Z,23.21
2017-05-22T09:28:45.630Z,23.24
2017-05-22T09:30:05.875Z,23.27
2017-05-22T09:31:20.314Z,23.3
2017-05-22T09:32:33.996Z,23.35
2017-05-22T09:33:48.211Z,23.38
2017-05-22T09:35:02.171Z,23.42
2017-05-22T09:36:16.334Z,23.52
2017-05-22T09:37:30.327Z,23.62
2017-05-22T09:38:44.065Z,23.74
2017-05-22T09:39:58.643Z,23.85
2017-05-22T09:41:13.456Z,23.97
2017-05-22T09:42:27.254Z,24.04
2017-05-22T09:43:41.658Z,24.08
2017-05-22T09:44:55.314Z,24.1
2017-05-22T09:46:09.058Z,24.12
2017-05-22T09:47:22.884Z,24.17
2017-05-22T09:48:36.597Z,24.23
2017-05-22T09:49:50.658Z,24.3
2017-05-22T09:51:05.055Z,24.38
2017-05-22T09:52:22.850Z,24.48
2017-05-22T09:53:36.533Z,24.57
2017-05-22T09:54:50.183Z,24.69
2017-05-22T09:56:04.135Z,24.83
2017-05-22T09:57:18.451Z,24.96
2017-05-22T09:58:32.136Z,25.04
2017-05-22T09:59:46.321Z,25.13
2017-05-22T10:01:00.719Z,25.26
2017-05-22T10:02:14.976Z,25.37
2017-05-22T10:03:28.956Z,25.47
2017-05-22T10:04:42.976Z,25.58
2017-05-22T10:05:57.002Z,25.63
2017-05-22T10:07:10.817Z,25.7
2017-05-22T10:08:25.053Z,25.73
2017-05-22T10:09:38.716Z,25.68
2017-05-22T10:10:52.431Z,25.53
2017-05-22T10:12:06.105Z,25.44
2017-05-22T10:13:20.381Z,25.38
2017-05-22T10:14:34.432Z,25.32
2017-05-22T10:15:48.456Z,25.27
2017-05-22T10:17:02.454Z,25.22
2017-05-22T10:18:16.178Z,25.18
2017-05-22T10:19:30.069Z,25.16
2017-05-22T10:20:43.812Z,25.12
2017-05-22T10:21:57.482Z,25.1
2017-05-22T10:23:14.197Z,25.09
2017-05-22T10:24:28.065Z,25.05
2017-05-22T10:25:41.714Z,24.97
2017-05-22T10:26:55.405Z,24.89
2017-05-22T10:28:09.776Z,24.81
2017-05-22T10:29:23.453Z,24.77
2017-05-22T10:30:37.100Z,24.73
2017-05-22T10:31:51.707Z,24.67
2017-05-22T10:33:05.420Z,24.56
2017-05-22T10:34:19.060Z,24.45
2017-05-22T10:35:33.025Z,24.37
2017-05-22T10:36:46.711Z,24.3
2017-05-22T10:38:00.350Z,24.25
2017-05-22T10:39:14.347Z,24.21
2017-05-22T10:40:28.325Z,24.19
2017-05-22T10:41:42.051Z,24.14
2017-05-22T10:42:56.004Z,24.13
2017-05-22T10:44:10.009Z,24.12
2017-05-22T10:45:23.975Z,24.1
2017-05-22T10:46:37.922Z,24.02
2017-05-22T10:47:51.532Z,23.97
2017-05-22T10:49:05.471Z,23.92
2017-05-22T10:50:20.029Z,23.88
2017-05-22T10:51:34.050Z,23.89
2017-05-22T10:52:47.671Z,23.93
2017-05-22T10:54:01.667Z,23.95
2017-05-22T10:55:15.948Z,23.92
2017-05-22T10:56:30.214Z,23.91
2017-05-22T10:57:44.283Z,23.92
2017-05-22T10:58:58.319Z,23.95
2017-05-22T11:00:12.553Z,23.95
2017-05-22T11:01:26.245Z,23.96
2017-05-22T11:02:40.469Z,24
2017-05-22T11:03:54.740Z,24.04
2017-05-22T11:05:08.394Z,24.04
2017-05-22T11:06:21.985Z,24.05
2017-05-22T11:07:35.910Z,24.04
2017-05-22T11:08:49.912Z,24.05
2017-05-22T11:10:03.736Z,24.06
2017-05-22T11:11:17.472Z,24.08
2017-05-22T11:12:31.179Z,24.1
2017-05-22T11:13:44.788Z,24.14
2017-05-22T11:14:59.089Z,24.16
2017-05-22T11:16:14.346Z,24.14
2017-05-22T11:17:28.272Z,24.13
2017-05-22T11:18:42.194Z,24.16
2017-05-22T11:19:56.258Z,24.2
2017-05-22T11:21:10.896Z,24.2
2017-05-22T11:22:24.692Z,24.18
2017-05-22T11:23:38.357Z,24.18
2017-05-22T11:24:51.988Z,24.19
2017-05-22T11:26:05.730Z,24.19
2017-05-22T11:27:19.758Z,24.24
2017-05-22T11:28:33.657Z,24.23
2017-05-22T11:29:47.661Z,24.24
2017-05-22T11:31:16.165Z,24.25
2017-05-22T11:32:29.833Z,24.23
2017-05-22T11:33:43.810Z,24.19
2017-05-22T11:34:57.557Z,24.15
2017-05-22T11:36:11.618Z,24.14
2017-05-22T11:37:25.599Z,24.15
2017-05-22T11:38:39.272Z,24.17
2017-05-22T11:39:53.589Z,24.18
2017-05-22T11:41:08.172Z,24.18
2017-05-22T11:42:22.373Z,24.23
2017-05-22T11:43:36.125Z,24.32
2017-05-22T11:44:49.891Z,24.42
2017-05-22T11:46:04.260Z,24.48
2017-05-22T11:47:18.168Z,24.54
2017-05-22T11:48:32.253Z,24.58
2017-05-22T11:49:45.929Z,24.62
2017-05-22T11:50:59.566Z,24.66
2017-05-22T11:52:13.561Z,24.71
2017-05-22T11:53:27.235Z,24.74
2017-05-22T11:54:41.283Z,24.75
2017-05-22T11:55:54.911Z,24.68
2017-05-22T11:57:08.751Z,24.59
2017-05-22T11:58:22.796Z,24.51
2017-05-22T11:59:36.391Z,24.44
2017-05-22T12:00:50.632Z,24.42
2017-05-22T12:02:04.886Z,24.42
2017-05-22T12:03:21.019Z,24.41
2017-05-22T12:04:35.619Z,24.41
2017-05-22T12:05:49.993Z,24.45
2017-05-22T12:07:03.679Z,24.51
2017-05-22T12:08:17.985Z,24.59
2017-05-22T12:09:32.320Z,24.67
2017-05-22T12:10:46.432Z,24.74
2017-05-22T12:12:00.209Z,24.79
2017-05-22T12:13:13.927Z,24.84
2017-05-22T12:14:28.231Z,24.91
2017-05-22T12:15:41.992Z,24.94
2017-05-22T12:16:56.239Z,24.99
2017-05-22T12:18:10.576Z,25.07
2017-05-22T12:19:24.978Z,25.13
2017-05-22T12:20:39.012Z,25.2
2017-05-22T12:21:53.423Z,25.28
2017-05-22T12:23:08.359Z,25.35
2017-05-22T12:24:22.008Z,25.4
2017-05-22T12:25:35.954Z,25.43
2017-05-22T12:26:50.238Z,25.45
2017-05-22T12:28:03.854Z,25.48
2017-05-22T12:29:18.436Z,25.53
2017-05-22T12:30:32.740Z,25.58
2017-05-22T12:31:46.703Z,25.58
2017-05-22T12:33:01.008Z,25.6
2017-05-22T12:34:14.767Z,25.62
2017-05-22T12:35:28.697Z,25.62
2017-05-22T12:36:42.715Z,25.62
2017-05-22T12:37:57.149Z,25.64
2017-05-22T12:39:11.112Z,25.64
2017-05-22T12:40:25.426Z,25.63
2017-05-22T12:41:39.810Z,25.65
2017-05-22T12:42:53.486Z,25.68
2017-05-22T12:44:07.117Z,25.73
2017-05-22T12:45:20.733Z,25.79
2017-05-22T12:46:34.373Z,25.84
2017-05-22T12:47:48.984Z,25.91
2017-05-22T12:49:02.817Z,25.99
2017-05-22T12:50:16.433Z,26.07
2017-05-22T12:51:30.090Z,26.15
2017-05-22T12:52:44.474Z,26.23
2017-05-22T12:53:58.716Z,26.28
2017-05-22T12:55:12.501Z,26.32
2017-05-22T12:56:26.101Z,26.31
2017-05-22T12:57:40.143Z,26.26
2017-05-22T12:58:53.848Z,26.22
2017-05-22T13:00:08.463Z,26.21
2017-05-22T13:01:23.670Z,26.2
2017-05-22T13:02:37.245Z,26.15
2017-05-22T13:03:51.132Z,26.1
2017-05-22T13:05:04.842Z,26.06
2017-05-22T13:06:18.880Z,25.98
2017-05-22T13:07:32.606Z,25.93
2017-05-22T13:08:46.657Z,25.87
2017-05-22T13:10:00.574Z,25.83
2017-05-22T13:11:14.493Z,25.82
2017-05-22T13:12:28.505Z,25.85
2017-05-22T13:13:42.217Z,25.93
2017-05-22T13:14:55.925Z,26.01
2017-05-22T13:16:09.624Z,26.09
2017-05-22T13:17:23.648Z,26.21
2017-05-22T13:18:37.652Z,26.27
2017-05-22T13:19:51.545Z,26.27
2017-05-22T13:21:05.925Z,26.3
2017-05-22T13:22:19.907Z,26.32
2017-05-22T13:23:40.166Z,26.3
2017-05-22T13:24:53.877Z,26.21
2017-05-22T13:26:08.204Z,26.17
2017-05-22T13:27:22.621Z,26.16
2017-05-22T13:28:37.314Z,26.17
2017-05-22T13:29:51.424Z,26.22
2017-05-22T13:31:05.440Z,26.23
2017-05-22T13:32:19.068Z,26.28
2017-05-22T13:33:33.190Z,26.33
2017-05-22T13:34:47.182Z,26.38
2017-05-22T13:36:01.567Z,26.43
2017-05-22T13:37:15.605Z,26.47
2017-05-22T13:38:29.360Z,26.54
2017-05-22T13:39:43.054Z,26.6
2017-05-22T13:40:57.399Z,26.65
2017-05-22T13:42:11.133Z,26.71
2017-05-22T13:43:25.550Z,26.73
2017-05-22T13:44:39.284Z,26.73
2017-05-22T13:45:52.993Z,26.74
2017-05-22T13:47:06.739Z,26.76
2017-05-22T13:48:20.368Z,26.79
2017-05-22T13:49:34.342Z,26.82
2017-05-22T13:50:47.949Z,26.86
2017-05-22T13:52:01.604Z,26.87
2017-05-22T13:53:15.967Z,26.84
2017-05-22T13:54:29.674Z,26.77
2017-05-22T13:55:44.112Z,26.71
2017-05-22T13:56:58.103Z,26.64
2017-05-22T13:58:12.884Z,26.59
2017-05-22T13:59:26.962Z,26.52
2017-05-22T14:00:40.738Z,26.47
2017-05-22T14:01:55.274Z,26.43
2017-05-22T14:03:09.907Z,26.4
2017-05-22T14:04:23.583Z,26.39
2017-05-22T14:05:37.213Z,26.38
2017-05-22T14:06:51.661Z,26.36
2017-05-22T14:08:05.808Z,26.35
2017-05-22T14:09:19.795Z,26.33
2017-05-22T14:10:33.850Z,26.34
2017-05-22T14:11:47.449Z,26.35
2017-05-22T14:13:01.160Z,26.37
2017-05-22T14:14:15.472Z,26.41
2017-05-22T14:15:30.172Z,26.43
2017-05-22T14:16:44.584Z,26.46
2017-05-22T14:17:58.282Z,26.49
2017-05-22T14:19:12.234Z,26.55
2017-05-22T14:20:26.824Z,26.63
2017-05-22T14:21:40.607Z,26.7
2017-05-22T14:22:54.237Z,26.76
2017-05-22T14:24:08.572Z,26.82
2017-05-22T14:25:22.528Z,26.88
2017-05-22T14:26:36.989Z,26.94
2017-05-22T14:27:51.483Z,27.03
2017-05-22T14:29:05.763Z,27.09
2017-05-22T14:30:20.171Z,27.16
2017-05-22T14:31:34.279Z,27.25
2017-05-22T14:32:48.311Z,27.32
2017-05-22T14:34:02.027Z,27.33
2017-05-22T14:35:16.471Z,27.4
2017-05-22T14:36:30.450Z,27.46
2017-05-22T14:37:44.067Z,27.53
2017-05-22T14:38:58.189Z,27.58
2017-05-22T14:40:12.562Z,27.63
2017-05-22T14:41:26.273Z,27.68
2017-05-22T14:45:30.367Z,27.82
2017-05-22T14:46:47.785Z,27.85
2017-05-22T14:48:05.079Z,27.86
2017-05-22T14:49:19.269Z,27.83
2017-05-22T14:50:34.212Z,27.79
2017-05-22T14:51:49.793Z,27.76
2017-05-22T14:53:05.731Z,27.79
2017-05-22T14:54:20.929Z,27.84
2017-05-22T14:55:38.452Z,27.9
2017-05-22T14:56:53.959Z,27.94
2017-05-22T14:58:11.045Z,27.95
2017-05-22T14:59:30.833Z,27.95
2017-05-22T15:00:51.331Z,27.93
2017-05-22T15:02:08.485Z,27.9
2017-05-22T15:03:22.613Z,27.88
2017-05-22T15:04:36.395Z,27.89
2017-05-22T15:05:51.054Z,27.87
2017-05-22T15:07:04.722Z,27.85
2017-05-22T15:08:21.768Z,27.86
2017-05-22T15:09:36.602Z,27.89
2017-05-22T15:10:50.265Z,27.91
2017-05-22T15:12:04.367Z,27.91
2017-05-22T15:13:18.710Z,27.9
2017-05-22T15:14:34.279Z,27.84
2017-05-22T15:15:50.597Z,27.79
2017-05-22T15:17:04.627Z,27.71
2017-05-22T15:18:18.346Z,27.66
2017-05-22T15:19:32.340Z,27.63
2017-05-22T15:20:46.813Z,27.65
2017-05-22T15:22:01.215Z,27.65
2017-05-22T15:23:15.921Z,27.64
2017-05-22T15:24:30.185Z,27.62
2017-05-22T15:25:43.975Z,27.59
2017-05-22T15:26:57.708Z,27.6
2017-05-22T15:28:11.812Z,27.61
2017-05-22T15:29:25.668Z,27.61
2017-05-22T15:30:40.091Z,27.58
2017-05-22T15:31:53.749Z,27.49
2017-05-22T15:33:08.741Z,27.42
2017-05-22T15:34:22.899Z,27.37
2017-05-22T15:35:36.908Z,27.33
2017-05-22T15:36:50.660Z,27.28
2017-05-22T15:38:04.434Z,27.21
2017-05-22T15:39:18.228Z,27.17
2017-05-22T15:40:32.231Z,27.13
2017-05-22T15:41:46.184Z,27.11
2017-05-22T15:43:00.491Z,26.97
2017-05-22T15:44:14.218Z,26.88
2017-05-22T15:45:28.192Z,26.77
2017-05-22T15:46:42.208Z,26.69
2017-05-22T15:47:56.339Z,26.6
2017-05-22T15:49:10.124Z,26.52
2017-05-22T15:50:24.215Z,26.41
2017-05-22T15:51:38.495Z,26.29
2017-05-22T15:52:52.476Z,26.21
2017-05-22T15:54:06.359Z,26.15
2017-05-22T15:55:20.106Z,26.11
2017-05-22T15:56:33.903Z,26.07
2017-05-22T15:57:47.508Z,26.04
2017-05-22T15:59:01.734Z,25.99
2017-05-22T16:00:15.390Z,25.93
2017-05-22T16:01:29.378Z,25.87
2017-05-22T16:02:44.526Z,25.8
2017-05-22T16:03:58.469Z,25.73